sensor_id;sensor_type;location;lat;lon;timestamp;P1;durP1;ratioP1;P2;durP2;ratioP2
33094;SDS011;19459;53.044;8.910;2023-06-04T00:00:05;6.70;;;1.90;;
33094;SDS011;19459;53.044;8.910;2023-06-04T00:02:32;3.63;;;1.95;;
33094;SDS011;19459;53.044;8.910;2023-06-04T00:04:57;4.32;;;2.20;;
33094;SDS011;19459;53.044;8.910;2023-06-04T00:07:23;4.10;;;2.40;;
33094;SDS011;19459;53.044;8.910;2023-06-04T00:09:49;6.68;;;2.20;;
33094;SDS011;19459;53.044;8.910;2023-06-04T00:12:17;6.50;;;2.25;;
33094;SDS011;19459;53.044;8.910;2023-06-04T00:14:43;5.63;;;1.55;;
33094;SDS011;19459;53.044;8.910;2023-06-04T00:17:18;4.90;;;2.42;;
33094;SDS011;19459;53.044;8.910;2023-06-04T00:19:46;3.92;;;2.00;;
33094;SDS011;19459;53.044;8.910;2023-06-04T00:22:12;8.80;;;2.15;;
33094;SDS011;19459;53.044;8.910;2023-06-04T00:24:38;4.78;;;1.95;;
33094;SDS011;19459;53.044;8.910;2023-06-04T00:27:07;6.05;;;2.78;;
33094;SDS011;19459;53.044;8.910;2023-06-04T00:29:34;5.80;;;2.00;;
33094;SDS011;19459;53.044;8.910;2023-06-04T00:32:00;6.00;;;1.92;;
33094;SDS011;19459;53.044;8.910;2023-06-04T00:34:26;7.00;;;2.55;;
33094;SDS011;19459;53.044;8.910;2023-06-04T00:36:52;6.07;;;1.83;;
33094;SDS011;19459;53.044;8.910;2023-06-04T00:39:18;4.90;;;2.13;;
33094;SDS011;19459;53.044;8.910;2023-06-04T00:41:44;8.13;;;2.38;;
33094;SDS011;19459;53.044;8.910;2023-06-04T00:44:10;6.57;;;2.47;;
33094;SDS011;19459;53.044;8.910;2023-06-04T00:46:36;5.57;;;2.42;;
33094;SDS011;19459;53.044;8.910;2023-06-04T00:49:02;5.50;;;2.67;;
33094;SDS011;19459;53.044;8.910;2023-06-04T00:51:32;4.75;;;2.10;;
33094;SDS011;19459;53.044;8.910;2023-06-04T00:53:58;6.75;;;2.33;;
33094;SDS011;19459;53.044;8.910;2023-06-04T00:56:26;7.60;;;3.40;;
33094;SDS011;19459;53.044;8.910;2023-06-04T00:58:52;5.15;;;2.58;;
33094;SDS011;19459;53.044;8.910;2023-06-04T01:01:26;5.47;;;3.10;;
33094;SDS011;19459;53.044;8.910;2023-06-04T01:07:11;4.40;;;2.58;;
33094;SDS011;19459;53.044;8.910;2023-06-04T01:09:41;3.97;;;3.00;;
33094;SDS011;19459;53.044;8.910;2023-06-04T01:12:10;5.72;;;3.00;;
33094;SDS011;19459;53.044;8.910;2023-06-04T01:14:36;7.68;;;2.63;;
33094;SDS011;19459;53.044;8.910;2023-06-04T01:17:06;5.05;;;2.90;;
33094;SDS011;19459;53.044;8.910;2023-06-04T01:22:44;5.60;;;2.28;;
33094;SDS011;19459;53.044;8.910;2023-06-04T01:25:33;4.75;;;2.25;;
33094;SDS011;19459;53.044;8.910;2023-06-04T01:28:04;7.88;;;2.97;;
33094;SDS011;19459;53.044;8.910;2023-06-04T01:30:37;5.18;;;2.88;;
33094;SDS011;19459;53.044;8.910;2023-06-04T01:33:11;6.72;;;2.65;;
33094;SDS011;19459;53.044;8.910;2023-06-04T01:35:40;5.22;;;2.80;;
33094;SDS011;19459;53.044;8.910;2023-06-04T01:38:06;8.40;;;3.03;;
33094;SDS011;19459;53.044;8.910;2023-06-04T01:40:32;6.85;;;2.75;;
33094;SDS011;19459;53.044;8.910;2023-06-04T01:42:59;6.30;;;2.95;;
33094;SDS011;19459;53.044;8.910;2023-06-04T01:45:26;6.25;;;3.08;;
33094;SDS011;19459;53.044;8.910;2023-06-04T01:47:53;4.40;;;2.60;;
33094;SDS011;19459;53.044;8.910;2023-06-04T01:50:19;4.50;;;2.85;;
33094;SDS011;19459;53.044;8.910;2023-06-04T01:52:45;12.98;;;2.72;;
33094;SDS011;19459;53.044;8.910;2023-06-04T01:55:12;7.97;;;2.47;;
33094;SDS011;19459;53.044;8.910;2023-06-04T01:57:40;6.80;;;3.10;;
33094;SDS011;19459;53.044;8.910;2023-06-04T02:00:09;8.75;;;2.95;;
33094;SDS011;19459;53.044;8.910;2023-06-04T02:02:37;8.07;;;3.30;;
33094;SDS011;19459;53.044;8.910;2023-06-04T02:05:04;7.13;;;2.80;;
33094;SDS011;19459;53.044;8.910;2023-06-04T02:07:37;5.97;;;2.58;;
33094;SDS011;19459;53.044;8.910;2023-06-04T02:10:05;4.93;;;2.30;;
33094;SDS011;19459;53.044;8.910;2023-06-04T02:12:39;6.05;;;2.85;;
33094;SDS011;19459;53.044;8.910;2023-06-04T02:15:06;9.55;;;3.28;;
33094;SDS011;19459;53.044;8.910;2023-06-04T02:17:35;7.60;;;2.55;;
33094;SDS011;19459;53.044;8.910;2023-06-04T02:20:05;5.30;;;2.90;;
33094;SDS011;19459;53.044;8.910;2023-06-04T02:22:34;6.82;;;2.97;;
33094;SDS011;19459;53.044;8.910;2023-06-04T02:25:00;7.03;;;2.72;;
33094;SDS011;19459;53.044;8.910;2023-06-04T02:27:26;11.10;;;3.33;;
33094;SDS011;19459;53.044;8.910;2023-06-04T02:29:53;5.53;;;3.35;;
33094;SDS011;19459;53.044;8.910;2023-06-04T02:32:19;8.27;;;3.00;;
33094;SDS011;19459;53.044;8.910;2023-06-04T02:34:45;9.63;;;2.75;;
33094;SDS011;19459;53.044;8.910;2023-06-04T02:37:11;6.70;;;3.10;;
33094;SDS011;19459;53.044;8.910;2023-06-04T02:39:37;5.57;;;3.10;;
33094;SDS011;19459;53.044;8.910;2023-06-04T02:42:03;5.57;;;2.78;;
33094;SDS011;19459;53.044;8.910;2023-06-04T02:44:29;5.00;;;2.92;;
33094;SDS011;19459;53.044;8.910;2023-06-04T02:46:56;8.05;;;3.33;;
33094;SDS011;19459;53.044;8.910;2023-06-04T02:49:22;11.27;;;3.72;;
33094;SDS011;19459;53.044;8.910;2023-06-04T02:51:48;10.20;;;3.20;;
33094;SDS011;19459;53.044;8.910;2023-06-04T02:54:13;6.78;;;2.90;;
33094;SDS011;19459;53.044;8.910;2023-06-04T02:56:40;8.25;;;3.40;;
33094;SDS011;19459;53.044;8.910;2023-06-04T02:59:05;7.88;;;3.42;;
33094;SDS011;19459;53.044;8.910;2023-06-04T03:01:34;10.00;;;3.95;;
33094;SDS011;19459;53.044;8.910;2023-06-04T03:04:01;8.32;;;3.90;;
33094;SDS011;19459;53.044;8.910;2023-06-04T03:06:35;4.72;;;3.20;;
33094;SDS011;19459;53.044;8.910;2023-06-04T03:09:06;7.05;;;3.20;;
33094;SDS011;19459;53.044;8.910;2023-06-04T03:11:32;9.93;;;2.88;;
33094;SDS011;19459;53.044;8.910;2023-06-04T03:13:58;7.03;;;3.42;;
33094;SDS011;19459;53.044;8.910;2023-06-04T03:16:24;5.75;;;3.20;;
33094;SDS011;19459;53.044;8.910;2023-06-04T03:18:50;5.07;;;3.08;;
33094;SDS011;19459;53.044;8.910;2023-06-04T03:21:16;8.90;;;3.08;;
33094;SDS011;19459;53.044;8.910;2023-06-04T03:23:42;7.68;;;3.20;;
33094;SDS011;19459;53.044;8.910;2023-06-04T03:26:08;8.13;;;3.25;;
33094;SDS011;19459;53.044;8.910;2023-06-04T03:28:37;5.38;;;3.08;;
33094;SDS011;19459;53.044;8.910;2023-06-04T03:31:05;6.28;;;2.97;;
33094;SDS011;19459;53.044;8.910;2023-06-04T03:33:31;10.20;;;2.65;;
33094;SDS011;19459;53.044;8.910;2023-06-04T03:35:58;10.02;;;3.03;;
33094;SDS011;19459;53.044;8.910;2023-06-04T03:38:26;10.45;;;3.42;;
33094;SDS011;19459;53.044;8.910;2023-06-04T03:40:53;8.10;;;3.53;;
33094;SDS011;19459;53.044;8.910;2023-06-04T03:43:19;7.32;;;3.10;;
33094;SDS011;19459;53.044;8.910;2023-06-04T03:45:46;9.18;;;3.42;;
33094;SDS011;19459;53.044;8.910;2023-06-04T03:48:12;6.75;;;3.35;;
33094;SDS011;19459;53.044;8.910;2023-06-04T03:50:38;7.78;;;3.30;;
33094;SDS011;19459;53.044;8.910;2023-06-04T03:53:05;5.57;;;3.17;;
33094;SDS011;19459;53.044;8.910;2023-06-04T03:55:31;6.22;;;3.38;;
33094;SDS011;19459;53.044;8.910;2023-06-04T03:58:00;7.03;;;3.60;;
33094;SDS011;19459;53.044;8.910;2023-06-04T04:00:25;5.25;;;2.80;;
33094;SDS011;19459;53.044;8.910;2023-06-04T04:02:51;10.35;;;4.35;;
33094;SDS011;19459;53.044;8.910;2023-06-04T04:05:17;9.82;;;3.33;;
33094;SDS011;19459;53.044;8.910;2023-06-04T04:07:43;7.18;;;3.72;;
33094;SDS011;19459;53.044;8.910;2023-06-04T04:10:08;14.32;;;4.25;;
33094;SDS011;19459;53.044;8.910;2023-06-04T04:12:36;10.02;;;4.30;;
33094;SDS011;19459;53.044;8.910;2023-06-04T04:15:01;9.40;;;3.97;;
33094;SDS011;19459;53.044;8.910;2023-06-04T04:17:27;11.95;;;3.55;;
33094;SDS011;19459;53.044;8.910;2023-06-04T04:19:53;10.63;;;3.65;;
33094;SDS011;19459;53.044;8.910;2023-06-04T04:22:19;10.13;;;4.30;;
33094;SDS011;19459;53.044;8.910;2023-06-04T04:24:45;9.77;;;4.47;;
33094;SDS011;19459;53.044;8.910;2023-06-04T04:27:11;6.65;;;4.07;;
33094;SDS011;19459;53.044;8.910;2023-06-04T04:29:40;9.90;;;3.63;;
33094;SDS011;19459;53.044;8.910;2023-06-04T04:32:07;10.23;;;3.97;;
33094;SDS011;19459;53.044;8.910;2023-06-04T04:34:38;11.68;;;3.95;;
33094;SDS011;19459;53.044;8.910;2023-06-04T04:37:16;10.10;;;4.25;;
33094;SDS011;19459;53.044;8.910;2023-06-04T04:39:46;13.50;;;4.18;;
33094;SDS011;19459;53.044;8.910;2023-06-04T04:42:11;8.90;;;4.55;;
33094;SDS011;19459;53.044;8.910;2023-06-04T04:44:38;10.43;;;4.82;;
33094;SDS011;19459;53.044;8.910;2023-06-04T04:47:05;6.65;;;4.47;;
33094;SDS011;19459;53.044;8.910;2023-06-04T04:49:31;9.48;;;4.20;;
33094;SDS011;19459;53.044;8.910;2023-06-04T04:51:57;8.35;;;3.97;;
33094;SDS011;19459;53.044;8.910;2023-06-04T04:54:22;8.50;;;4.35;;
33094;SDS011;19459;53.044;8.910;2023-06-04T04:56:48;7.80;;;4.18;;
33094;SDS011;19459;53.044;8.910;2023-06-04T04:59:14;8.30;;;4.53;;
33094;SDS011;19459;53.044;8.910;2023-06-04T05:01:40;10.68;;;4.57;;
33094;SDS011;19459;53.044;8.910;2023-06-04T05:04:06;9.32;;;4.32;;
33094;SDS011;19459;53.044;8.910;2023-06-04T05:06:31;10.57;;;4.75;;
33094;SDS011;19459;53.044;8.910;2023-06-04T05:08:57;7.60;;;4.10;;
33094;SDS011;19459;53.044;8.910;2023-06-04T05:11:24;8.18;;;4.63;;
33094;SDS011;19459;53.044;8.910;2023-06-04T05:13:50;10.27;;;4.13;;
33094;SDS011;19459;53.044;8.910;2023-06-04T05:16:16;9.18;;;4.07;;
33094;SDS011;19459;53.044;8.910;2023-06-04T05:18:45;11.00;;;4.55;;
33094;SDS011;19459;53.044;8.910;2023-06-04T05:21:11;13.98;;;4.80;;
33094;SDS011;19459;53.044;8.910;2023-06-04T05:23:37;9.32;;;4.78;;
33094;SDS011;19459;53.044;8.910;2023-06-04T05:26:04;7.85;;;4.13;;
33094;SDS011;19459;53.044;8.910;2023-06-04T05:28:30;9.07;;;4.95;;
33094;SDS011;19459;53.044;8.910;2023-06-04T05:30:58;12.15;;;5.20;;
33094;SDS011;19459;53.044;8.910;2023-06-04T05:33:26;13.23;;;5.00;;
33094;SDS011;19459;53.044;8.910;2023-06-04T05:35:52;13.85;;;4.93;;
33094;SDS011;19459;53.044;8.910;2023-06-04T05:38:19;8.02;;;5.43;;
33094;SDS011;19459;53.044;8.910;2023-06-04T05:40:50;12.27;;;5.00;;
33094;SDS011;19459;53.044;8.910;2023-06-04T05:43:18;9.77;;;5.80;;
33094;SDS011;19459;53.044;8.910;2023-06-04T05:45:44;7.35;;;4.63;;
33094;SDS011;19459;53.044;8.910;2023-06-04T05:48:11;10.95;;;5.32;;
33094;SDS011;19459;53.044;8.910;2023-06-04T05:50:37;9.32;;;4.30;;
33094;SDS011;19459;53.044;8.910;2023-06-04T05:53:03;11.27;;;5.38;;
33094;SDS011;19459;53.044;8.910;2023-06-04T05:55:30;10.52;;;4.95;;
33094;SDS011;19459;53.044;8.910;2023-06-04T05:57:56;14.90;;;5.00;;
33094;SDS011;19459;53.044;8.910;2023-06-04T06:00:21;9.80;;;5.07;;
33094;SDS011;19459;53.044;8.910;2023-06-04T06:02:49;8.63;;;4.13;;
33094;SDS011;19459;53.044;8.910;2023-06-04T06:05:17;12.52;;;5.20;;
33094;SDS011;19459;53.044;8.910;2023-06-04T06:07:43;9.63;;;4.75;;
33094;SDS011;19459;53.044;8.910;2023-06-04T06:10:10;12.25;;;4.50;;
33094;SDS011;19459;53.044;8.910;2023-06-04T06:12:36;8.88;;;4.28;;
33094;SDS011;19459;53.044;8.910;2023-06-04T06:15:03;10.88;;;4.10;;
33094;SDS011;19459;53.044;8.910;2023-06-04T06:17:30;6.88;;;4.88;;
33094;SDS011;19459;53.044;8.910;2023-06-04T06:19:57;19.17;;;4.70;;
33094;SDS011;19459;53.044;8.910;2023-06-04T06:22:24;8.48;;;4.43;;
33094;SDS011;19459;53.044;8.910;2023-06-04T06:24:52;6.88;;;4.32;;
33094;SDS011;19459;53.044;8.910;2023-06-04T06:27:18;10.77;;;4.82;;
33094;SDS011;19459;53.044;8.910;2023-06-04T06:29:44;9.05;;;4.05;;
33094;SDS011;19459;53.044;8.910;2023-06-04T06:32:10;12.38;;;4.80;;
33094;SDS011;19459;53.044;8.910;2023-06-04T06:34:36;6.97;;;3.97;;
33094;SDS011;19459;53.044;8.910;2023-06-04T06:37:06;6.40;;;3.65;;
33094;SDS011;19459;53.044;8.910;2023-06-04T06:39:32;12.57;;;4.75;;
33094;SDS011;19459;53.044;8.910;2023-06-04T06:41:58;10.55;;;4.45;;
33094;SDS011;19459;53.044;8.910;2023-06-04T06:44:23;5.88;;;4.20;;
33094;SDS011;19459;53.044;8.910;2023-06-04T06:46:50;7.75;;;4.07;;
33094;SDS011;19459;53.044;8.910;2023-06-04T06:49:16;12.75;;;4.68;;
33094;SDS011;19459;53.044;8.910;2023-06-04T06:51:42;12.07;;;4.70;;
33094;SDS011;19459;53.044;8.910;2023-06-04T06:54:08;9.25;;;3.80;;
33094;SDS011;19459;53.044;8.910;2023-06-04T06:56:35;7.65;;;4.25;;
33094;SDS011;19459;53.044;8.910;2023-06-04T06:59:01;14.18;;;4.43;;
33094;SDS011;19459;53.044;8.910;2023-06-04T07:01:27;12.55;;;3.80;;
33094;SDS011;19459;53.044;8.910;2023-06-04T07:03:53;7.43;;;3.97;;
33094;SDS011;19459;53.044;8.910;2023-06-04T07:06:18;11.63;;;3.72;;
33094;SDS011;19459;53.044;8.910;2023-06-04T07:08:45;6.50;;;3.00;;
33094;SDS011;19459;53.044;8.910;2023-06-04T07:11:13;12.10;;;4.00;;
33094;SDS011;19459;53.044;8.910;2023-06-04T07:13:39;9.30;;;2.95;;
33094;SDS011;19459;53.044;8.910;2023-06-04T07:16:05;6.05;;;3.10;;
33094;SDS011;19459;53.044;8.910;2023-06-04T07:18:31;6.40;;;3.10;;
33094;SDS011;19459;53.044;8.910;2023-06-04T07:20:57;8.48;;;3.50;;
33094;SDS011;19459;53.044;8.910;2023-06-04T07:23:23;8.52;;;3.17;;
33094;SDS011;19459;53.044;8.910;2023-06-04T07:25:49;8.43;;;3.35;;
33094;SDS011;19459;53.044;8.910;2023-06-04T07:28:16;5.50;;;3.00;;
33094;SDS011;19459;53.044;8.910;2023-06-04T07:30:44;6.38;;;2.55;;
33094;SDS011;19459;53.044;8.910;2023-06-04T07:33:11;8.32;;;3.65;;
33094;SDS011;19459;53.044;8.910;2023-06-04T07:35:37;7.57;;;2.72;;
33094;SDS011;19459;53.044;8.910;2023-06-04T07:38:03;8.52;;;3.47;;
33094;SDS011;19459;53.044;8.910;2023-06-04T07:40:28;9.82;;;3.33;;
33094;SDS011;19459;53.044;8.910;2023-06-04T07:42:55;5.18;;;2.70;;
33094;SDS011;19459;53.044;8.910;2023-06-04T07:45:20;15.50;;;3.25;;
33094;SDS011;19459;53.044;8.910;2023-06-04T07:47:46;6.22;;;2.78;;
33094;SDS011;19459;53.044;8.910;2023-06-04T07:50:14;6.30;;;2.92;;
33094;SDS011;19459;53.044;8.910;2023-06-04T07:52:39;6.22;;;2.80;;
33094;SDS011;19459;53.044;8.910;2023-06-04T07:55:06;8.52;;;2.83;;
33094;SDS011;19459;53.044;8.910;2023-06-04T07:57:34;5.47;;;3.22;;
33094;SDS011;19459;53.044;8.910;2023-06-04T08:00:01;5.60;;;2.88;;
33094;SDS011;19459;53.044;8.910;2023-06-04T08:02:29;5.05;;;2.70;;
33094;SDS011;19459;53.044;8.910;2023-06-04T08:04:55;5.45;;;2.38;;
33094;SDS011;19459;53.044;8.910;2023-06-04T08:07:24;7.97;;;2.47;;
33094;SDS011;19459;53.044;8.910;2023-06-04T08:09:50;4.93;;;2.70;;
33094;SDS011;19459;53.044;8.910;2023-06-04T08:12:17;5.40;;;2.67;;
33094;SDS011;19459;53.044;8.910;2023-06-04T08:14:43;6.15;;;2.30;;
33094;SDS011;19459;53.044;8.910;2023-06-04T08:17:08;5.05;;;2.10;;
33094;SDS011;19459;53.044;8.910;2023-06-04T08:19:36;5.93;;;2.55;;
33094;SDS011;19459;53.044;8.910;2023-06-04T08:22:02;7.78;;;2.10;;
33094;SDS011;19459;53.044;8.910;2023-06-04T08:24:28;6.57;;;2.70;;
33094;SDS011;19459;53.044;8.910;2023-06-04T08:26:55;6.93;;;2.33;;
33094;SDS011;19459;53.044;8.910;2023-06-04T08:29:21;5.30;;;2.08;;
33094;SDS011;19459;53.044;8.910;2023-06-04T08:31:47;9.73;;;2.50;;
33094;SDS011;19459;53.044;8.910;2023-06-04T08:34:13;7.00;;;2.50;;
33094;SDS011;19459;53.044;8.910;2023-06-04T08:36:39;5.78;;;2.00;;
33094;SDS011;19459;53.044;8.910;2023-06-04T08:39:07;4.63;;;2.30;;
33094;SDS011;19459;53.044;8.910;2023-06-04T08:41:38;4.30;;;1.80;;
33094;SDS011;19459;53.044;8.910;2023-06-04T08:44:11;4.28;;;1.73;;
33094;SDS011;19459;53.044;8.910;2023-06-04T08:46:40;7.03;;;1.40;;
33094;SDS011;19459;53.044;8.910;2023-06-04T08:49:07;4.53;;;1.80;;
33094;SDS011;19459;53.044;8.910;2023-06-04T08:51:35;3.63;;;1.85;;
33094;SDS011;19459;53.044;8.910;2023-06-04T08:54:05;5.57;;;1.67;;
33094;SDS011;19459;53.044;8.910;2023-06-04T08:56:35;3.90;;;1.60;;
33094;SDS011;19459;53.044;8.910;2023-06-04T08:59:03;2.55;;;1.35;;
33094;SDS011;19459;53.044;8.910;2023-06-04T09:01:32;3.20;;;1.45;;
33094;SDS011;19459;53.044;8.910;2023-06-04T09:04:00;4.18;;;1.50;;
33094;SDS011;19459;53.044;8.910;2023-06-04T09:06:30;4.85;;;1.40;;
33094;SDS011;19459;53.044;8.910;2023-06-04T09:08:58;3.15;;;1.05;;
33094;SDS011;19459;53.044;8.910;2023-06-04T09:11:32;2.33;;;1.33;;
33094;SDS011;19459;53.044;8.910;2023-06-04T09:14:07;1.45;;;1.10;;
33094;SDS011;19459;53.044;8.910;2023-06-04T09:16:43;5.50;;;1.45;;
33094;SDS011;19459;53.044;8.910;2023-06-04T09:19:13;4.05;;;1.25;;
33094;SDS011;19459;53.044;8.910;2023-06-04T09:21:49;2.17;;;1.10;;
33094;SDS011;19459;53.044;8.910;2023-06-04T09:24:19;3.45;;;1.27;;
33094;SDS011;19459;53.044;8.910;2023-06-04T09:26:50;3.95;;;0.93;;
33094;SDS011;19459;53.044;8.910;2023-06-04T09:29:16;2.67;;;1.20;;
33094;SDS011;19459;53.044;8.910;2023-06-04T09:31:46;3.55;;;1.58;;
33094;SDS011;19459;53.044;8.910;2023-06-04T09:34:28;2.08;;;0.93;;
33094;SDS011;19459;53.044;8.910;2023-06-04T09:36:55;2.20;;;1.05;;
33094;SDS011;19459;53.044;8.910;2023-06-04T09:39:21;3.20;;;1.20;;
33094;SDS011;19459;53.044;8.910;2023-06-04T09:42:01;4.35;;;1.17;;
33094;SDS011;19459;53.044;8.910;2023-06-04T09:44:31;4.90;;;1.58;;
33094;SDS011;19459;53.044;8.910;2023-06-04T09:46:57;3.30;;;1.30;;
33094;SDS011;19459;53.044;8.910;2023-06-04T09:49:23;2.58;;;1.20;;
33094;SDS011;19459;53.044;8.910;2023-06-04T09:51:50;3.63;;;1.27;;
33094;SDS011;19459;53.044;8.910;2023-06-04T09:54:16;2.35;;;1.15;;
33094;SDS011;19459;53.044;8.910;2023-06-04T09:56:43;4.93;;;1.23;;
33094;SDS011;19459;53.044;8.910;2023-06-04T09:59:09;3.28;;;1.40;;
33094;SDS011;19459;53.044;8.910;2023-06-04T10:01:37;3.20;;;1.50;;
33094;SDS011;19459;53.044;8.910;2023-06-04T10:04:06;6.97;;;2.28;;
33094;SDS011;19459;53.044;8.910;2023-06-04T10:06:36;3.88;;;1.60;;
33094;SDS011;19459;53.044;8.910;2023-06-04T10:09:08;3.85;;;1.63;;
33094;SDS011;19459;53.044;8.910;2023-06-04T10:11:35;5.50;;;1.27;;
33094;SDS011;19459;53.044;8.910;2023-06-04T10:16:47;4.75;;;2.13;;
33094;SDS011;19459;53.044;8.910;2023-06-04T10:19:16;7.05;;;1.90;;
33094;SDS011;19459;53.044;8.910;2023-06-04T10:21:43;3.97;;;1.50;;
33094;SDS011;19459;53.044;8.910;2023-06-04T10:24:09;2.55;;;1.20;;
33094;SDS011;19459;53.044;8.910;2023-06-04T10:26:37;4.63;;;1.58;;
33094;SDS011;19459;53.044;8.910;2023-06-04T10:29:04;2.53;;;1.50;;
33094;SDS011;19459;53.044;8.910;2023-06-04T10:31:31;2.92;;;1.40;;
33094;SDS011;19459;53.044;8.910;2023-06-04T10:33:57;4.25;;;1.60;;
33094;SDS011;19459;53.044;8.910;2023-06-04T10:36:25;5.63;;;1.70;;
33094;SDS011;19459;53.044;8.910;2023-06-04T10:38:52;3.42;;;1.40;;
33094;SDS011;19459;53.044;8.910;2023-06-04T10:41:21;3.10;;;1.70;;
33094;SDS011;19459;53.044;8.910;2023-06-04T10:43:48;4.05;;;1.50;;
33094;SDS011;19459;53.044;8.910;2023-06-04T10:46:18;3.17;;;1.30;;
33094;SDS011;19459;53.044;8.910;2023-06-04T10:48:46;4.38;;;1.23;;
33094;SDS011;19459;53.044;8.910;2023-06-04T10:51:31;4.25;;;1.48;;
33094;SDS011;19459;53.044;8.910;2023-06-04T10:54:00;2.42;;;1.38;;
33094;SDS011;19459;53.044;8.910;2023-06-04T10:56:27;2.65;;;1.42;;
33094;SDS011;19459;53.044;8.910;2023-06-04T10:58:58;5.10;;;1.83;;
33094;SDS011;19459;53.044;8.910;2023-06-04T11:01:27;4.75;;;1.58;;
33094;SDS011;19459;53.044;8.910;2023-06-04T11:03:57;6.00;;;1.52;;
33094;SDS011;19459;53.044;8.910;2023-06-04T11:06:25;3.03;;;1.45;;
33094;SDS011;19459;53.044;8.910;2023-06-04T11:09:03;2.55;;;1.27;;
33094;SDS011;19459;53.044;8.910;2023-06-04T11:11:33;3.05;;;1.60;;
33094;SDS011;19459;53.044;8.910;2023-06-04T11:14:10;2.28;;;1.20;;
33094;SDS011;19459;53.044;8.910;2023-06-04T11:16:41;2.60;;;1.27;;
33094;SDS011;19459;53.044;8.910;2023-06-04T11:19:07;1.85;;;1.02;;
33094;SDS011;19459;53.044;8.910;2023-06-04T11:21:35;2.35;;;1.25;;
33094;SDS011;19459;53.044;8.910;2023-06-04T11:24:03;3.78;;;1.80;;
33094;SDS011;19459;53.044;8.910;2023-06-04T11:26:33;3.05;;;1.42;;
33094;SDS011;19459;53.044;8.910;2023-06-04T11:29:01;3.08;;;1.45;;
33094;SDS011;19459;53.044;8.910;2023-06-04T11:31:44;3.58;;;1.27;;
33094;SDS011;19459;53.044;8.910;2023-06-04T11:34:32;5.40;;;1.40;;
33094;SDS011;19459;53.044;8.910;2023-06-04T11:37:07;3.30;;;1.45;;
33094;SDS011;19459;53.044;8.910;2023-06-04T11:39:35;2.45;;;1.25;;
33094;SDS011;19459;53.044;8.910;2023-06-04T11:42:04;4.18;;;1.30;;
33094;SDS011;19459;53.044;8.910;2023-06-04T11:44:32;3.30;;;1.35;;
33094;SDS011;19459;53.044;8.910;2023-06-04T11:46:58;5.15;;;1.85;;
33094;SDS011;19459;53.044;8.910;2023-06-04T11:49:24;3.95;;;1.27;;
33094;SDS011;19459;53.044;8.910;2023-06-04T11:51:53;3.78;;;1.83;;
33094;SDS011;19459;53.044;8.910;2023-06-04T11:54:20;2.28;;;1.38;;
33094;SDS011;19459;53.044;8.910;2023-06-04T11:56:48;4.85;;;1.35;;
33094;SDS011;19459;53.044;8.910;2023-06-04T11:59:16;3.63;;;1.35;;
33094;SDS011;19459;53.044;8.910;2023-06-04T12:01:43;2.13;;;1.30;;
33094;SDS011;19459;53.044;8.910;2023-06-04T12:04:16;2.95;;;1.20;;
33094;SDS011;19459;53.044;8.910;2023-06-04T12:06:53;2.42;;;1.50;;
33094;SDS011;19459;53.044;8.910;2023-06-04T12:09:29;3.97;;;1.50;;
33094;SDS011;19459;53.044;8.910;2023-06-04T12:14:30;4.00;;;1.30;;
33094;SDS011;19459;53.044;8.910;2023-06-04T12:16:57;3.85;;;1.60;;
33094;SDS011;19459;53.044;8.910;2023-06-04T12:19:23;3.05;;;1.63;;
33094;SDS011;19459;53.044;8.910;2023-06-04T12:22:07;12.00;;;2.30;;
33094;SDS011;19459;53.044;8.910;2023-06-04T12:24:33;4.07;;;1.58;;
33094;SDS011;19459;53.044;8.910;2023-06-04T12:27:12;3.35;;;1.38;;
33094;SDS011;19459;53.044;8.910;2023-06-04T12:29:37;3.80;;;1.50;;
33094;SDS011;19459;53.044;8.910;2023-06-04T12:32:07;4.57;;;1.42;;
33094;SDS011;19459;53.044;8.910;2023-06-04T12:34:36;2.65;;;1.38;;
33094;SDS011;19459;53.044;8.910;2023-06-04T12:37:02;2.03;;;1.50;;
33094;SDS011;19459;53.044;8.910;2023-06-04T12:39:31;4.35;;;1.70;;
33094;SDS011;19459;53.044;8.910;2023-06-04T12:41:59;3.10;;;1.75;;
33094;SDS011;19459;53.044;8.910;2023-06-04T12:44:24;5.03;;;1.27;;
33094;SDS011;19459;53.044;8.910;2023-06-04T12:46:50;4.53;;;1.70;;
33094;SDS011;19459;53.044;8.910;2023-06-04T12:49:16;4.95;;;1.30;;
33094;SDS011;19459;53.044;8.910;2023-06-04T12:51:42;2.17;;;1.45;;
33094;SDS011;19459;53.044;8.910;2023-06-04T12:54:08;2.08;;;1.75;;
33094;SDS011;19459;53.044;8.910;2023-06-04T12:56:35;4.22;;;1.55;;
33094;SDS011;19459;53.044;8.910;2023-06-04T12:59:01;2.95;;;1.92;;
33094;SDS011;19459;53.044;8.910;2023-06-04T13:01:27;3.28;;;1.92;;
33094;SDS011;19459;53.044;8.910;2023-06-04T13:03:53;4.53;;;2.13;;
33094;SDS011;19459;53.044;8.910;2023-06-04T13:06:20;4.00;;;1.75;;
33094;SDS011;19459;53.044;8.910;2023-06-04T13:08:46;1.63;;;1.30;;
33094;SDS011;19459;53.044;8.910;2023-06-04T13:11:15;9.55;;;2.15;;
33094;SDS011;19459;53.044;8.910;2023-06-04T13:13:41;3.03;;;1.55;;
33094;SDS011;19459;53.044;8.910;2023-06-04T13:16:07;3.28;;;2.00;;
33094;SDS011;19459;53.044;8.910;2023-06-04T13:18:33;3.85;;;1.83;;
33094;SDS011;19459;53.044;8.910;2023-06-04T13:20:59;3.90;;;1.50;;
33094;SDS011;19459;53.044;8.910;2023-06-04T13:23:25;3.20;;;1.40;;
33094;SDS011;19459;53.044;8.910;2023-06-04T13:25:51;3.70;;;1.77;;
33094;SDS011;19459;53.044;8.910;2023-06-04T13:28:16;2.30;;;1.73;;
33094;SDS011;19459;53.044;8.910;2023-06-04T13:30:42;2.67;;;1.80;;
33094;SDS011;19459;53.044;8.910;2023-06-04T13:33:10;4.55;;;1.88;;
33094;SDS011;19459;53.044;8.910;2023-06-04T13:35:35;5.38;;;2.33;;
33094;SDS011;19459;53.044;8.910;2023-06-04T13:38:05;2.45;;;1.73;;
33094;SDS011;19459;53.044;8.910;2023-06-04T13:40:31;4.18;;;2.00;;
33094;SDS011;19459;53.044;8.910;2023-06-04T13:42:59;5.13;;;1.50;;
33094;SDS011;19459;53.044;8.910;2023-06-04T13:45:25;4.20;;;1.80;;
33094;SDS011;19459;53.044;8.910;2023-06-04T13:47:51;3.05;;;1.50;;
33094;SDS011;19459;53.044;8.910;2023-06-04T13:50:17;3.97;;;1.52;;
33094;SDS011;19459;53.044;8.910;2023-06-04T13:52:43;2.72;;;1.52;;
33094;SDS011;19459;53.044;8.910;2023-06-04T13:55:08;5.55;;;1.90;;
33094;SDS011;19459;53.044;8.910;2023-06-04T13:57:34;4.47;;;1.40;;
33094;SDS011;19459;53.044;8.910;2023-06-04T14:00:00;4.38;;;1.75;;
33094;SDS011;19459;53.044;8.910;2023-06-04T14:02:26;4.10;;;1.35;;
33094;SDS011;19459;53.044;8.910;2023-06-04T14:04:52;1.85;;;1.23;;
33094;SDS011;19459;53.044;8.910;2023-06-04T14:07:19;2.70;;;1.30;;
33094;SDS011;19459;53.044;8.910;2023-06-04T14:09:45;3.40;;;1.77;;
33094;SDS011;19459;53.044;8.910;2023-06-04T14:12:12;4.13;;;1.95;;
33094;SDS011;19459;53.044;8.910;2023-06-04T14:14:42;5.35;;;2.22;;
33094;SDS011;19459;53.044;8.910;2023-06-04T14:17:08;5.63;;;2.20;;
33094;SDS011;19459;53.044;8.910;2023-06-04T14:19:34;3.72;;;1.77;;
33094;SDS011;19459;53.044;8.910;2023-06-04T14:22:00;4.57;;;2.00;;
33094;SDS011;19459;53.044;8.910;2023-06-04T14:24:29;4.95;;;1.90;;
33094;SDS011;19459;53.044;8.910;2023-06-04T14:26:55;5.40;;;1.95;;
33094;SDS011;19459;53.044;8.910;2023-06-04T14:29:21;2.80;;;1.70;;
33094;SDS011;19459;53.044;8.910;2023-06-04T14:31:47;2.50;;;1.75;;
33094;SDS011;19459;53.044;8.910;2023-06-04T14:34:13;7.75;;;1.95;;
33094;SDS011;19459;53.044;8.910;2023-06-04T14:36:39;4.05;;;1.63;;
33094;SDS011;19459;53.044;8.910;2023-06-04T14:39:05;2.78;;;1.90;;
33094;SDS011;19459;53.044;8.910;2023-06-04T14:41:31;2.85;;;1.70;;
33094;SDS011;19459;53.044;8.910;2023-06-04T14:43:57;10.93;;;5.10;;
33094;SDS011;19459;53.044;8.910;2023-06-04T14:46:23;9.20;;;4.28;;
33094;SDS011;19459;53.044;8.910;2023-06-04T14:48:49;10.55;;;2.30;;
33094;SDS011;19459;53.044;8.910;2023-06-04T14:51:15;5.28;;;2.03;;
33094;SDS011;19459;53.044;8.910;2023-06-04T14:53:41;4.35;;;2.00;;
33094;SDS011;19459;53.044;8.910;2023-06-04T14:56:06;8.38;;;1.75;;
33094;SDS011;19459;53.044;8.910;2023-06-04T14:58:32;9.57;;;3.85;;